sensor_id;sensor_type;location;lat;lon;timestamp;P1;durP1;ratioP1;P2;durP2;ratioP2
78716;SDS011;68045;50.042;14.432;2023-07-24T00:03:40;6.65;;;4.15;;
78716;SDS011;68045;50.042;14.432;2023-07-24T00:07:41;7.68;;;3.95;;
78716;SDS011;68045;50.042;14.432;2023-07-24T00:11:42;7.40;;;4.57;;
78716;SDS011;68045;50.042;14.432;2023-07-24T00:15:43;8.10;;;4.35;;
78716;SDS011;68045;50.042;14.432;2023-07-24T00:19:44;8.30;;;4.60;;
78716;SDS011;68045;50.042;14.432;2023-07-24T00:23:45;9.52;;;3.88;;
78716;SDS011;68045;50.042;14.432;2023-07-24T00:27:46;8.30;;;4.32;;
78716;SDS011;68045;50.042;14.432;2023-07-24T00:31:47;7.90;;;4.28;;
78716;SDS011;68045;50.042;14.432;2023-07-24T00:35:48;7.65;;;3.97;;
78716;SDS011;68045;50.042;14.432;2023-07-24T00:43:52;7.25;;;4.22;;
78716;SDS011;68045;50.042;14.432;2023-07-24T00:47:53;9.07;;;4.88;;
78716;SDS011;68045;50.042;14.432;2023-07-24T00:51:54;8.98;;;4.53;;
78716;SDS011;68045;50.042;14.432;2023-07-24T00:55:55;9.93;;;4.63;;
78716;SDS011;68045;50.042;14.432;2023-07-24T00:59:56;8.00;;;4.70;;
78716;SDS011;68045;50.042;14.432;2023-07-24T01:03:57;9.18;;;5.03;;
78716;SDS011;68045;50.042;14.432;2023-07-24T01:07:59;8.13;;;5.00;;
78716;SDS011;68045;50.042;14.432;2023-07-24T01:12:20;8.98;;;4.75;;
78716;SDS011;68045;50.042;14.432;2023-07-24T01:20:34;9.40;;;5.05;;
78716;SDS011;68045;50.042;14.432;2023-07-24T01:24:47;8.95;;;4.72;;
78716;SDS011;68045;50.042;14.432;2023-07-24T01:29:01;7.93;;;4.78;;
78716;SDS011;68045;50.042;14.432;2023-07-24T01:33:02;9.93;;;4.45;;
78716;SDS011;68045;50.042;14.432;2023-07-24T01:37:03;9.50;;;5.07;;
78716;SDS011;68045;50.042;14.432;2023-07-24T01:41:04;8.10;;;4.60;;
78716;SDS011;68045;50.042;14.432;2023-07-24T01:45:06;7.82;;;4.70;;
78716;SDS011;68045;50.042;14.432;2023-07-24T01:49:08;9.13;;;4.50;;
78716;SDS011;68045;50.042;14.432;2023-07-24T01:53:09;8.45;;;4.53;;
78716;SDS011;68045;50.042;14.432;2023-07-24T01:57:10;10.95;;;5.22;;
78716;SDS011;68045;50.042;14.432;2023-07-24T02:01:11;7.45;;;4.72;;
78716;SDS011;68045;50.042;14.432;2023-07-24T02:05:12;9.25;;;4.97;;
78716;SDS011;68045;50.042;14.432;2023-07-24T02:09:13;13.02;;;5.32;;
78716;SDS011;68045;50.042;14.432;2023-07-24T02:13:14;8.18;;;5.18;;
78716;SDS011;68045;50.042;14.432;2023-07-24T02:17:22;8.68;;;4.90;;
78716;SDS011;68045;50.042;14.432;2023-07-24T02:21:24;9.70;;;4.88;;
78716;SDS011;68045;50.042;14.432;2023-07-24T02:25:25;8.80;;;4.63;;
78716;SDS011;68045;50.042;14.432;2023-07-24T02:29:26;8.50;;;5.10;;
78716;SDS011;68045;50.042;14.432;2023-07-24T02:33:27;7.43;;;4.40;;
78716;SDS011;68045;50.042;14.432;2023-07-24T02:37:28;7.53;;;4.95;;
78716;SDS011;68045;50.042;14.432;2023-07-24T02:41:30;8.57;;;5.20;;
78716;SDS011;68045;50.042;14.432;2023-07-24T02:45:33;9.10;;;5.13;;
78716;SDS011;68045;50.042;14.432;2023-07-24T02:49:35;8.73;;;5.32;;
78716;SDS011;68045;50.042;14.432;2023-07-24T02:53:36;10.20;;;5.28;;
78716;SDS011;68045;50.042;14.432;2023-07-24T02:57:37;9.63;;;5.25;;
78716;SDS011;68045;50.042;14.432;2023-07-24T03:01:38;11.20;;;5.45;;
78716;SDS011;68045;50.042;14.432;2023-07-24T03:05:40;9.75;;;5.72;;
78716;SDS011;68045;50.042;14.432;2023-07-24T03:09:41;10.13;;;5.88;;
78716;SDS011;68045;50.042;14.432;2023-07-24T03:13:42;10.77;;;5.13;;
78716;SDS011;68045;50.042;14.432;2023-07-24T03:17:43;9.38;;;5.45;;
78716;SDS011;68045;50.042;14.432;2023-07-24T03:21:45;8.68;;;4.88;;
78716;SDS011;68045;50.042;14.432;2023-07-24T03:25:46;12.00;;;5.57;;
78716;SDS011;68045;50.042;14.432;2023-07-24T03:29:47;8.75;;;4.90;;
78716;SDS011;68045;50.042;14.432;2023-07-24T03:33:48;8.93;;;4.90;;
78716;SDS011;68045;50.042;14.432;2023-07-24T03:37:49;10.15;;;5.38;;
78716;SDS011;68045;50.042;14.432;2023-07-24T03:41:50;9.15;;;4.88;;
78716;SDS011;68045;50.042;14.432;2023-07-24T03:45:51;10.95;;;5.30;;
78716;SDS011;68045;50.042;14.432;2023-07-24T03:49:52;10.20;;;5.40;;
78716;SDS011;68045;50.042;14.432;2023-07-24T03:53:53;12.32;;;5.40;;
78716;SDS011;68045;50.042;14.432;2023-07-24T03:57:54;12.15;;;5.38;;
78716;SDS011;68045;50.042;14.432;2023-07-24T04:01:55;8.88;;;5.28;;
78716;SDS011;68045;50.042;14.432;2023-07-24T04:05:55;9.43;;;5.05;;
78716;SDS011;68045;50.042;14.432;2023-07-24T04:09:56;12.85;;;5.10;;
78716;SDS011;68045;50.042;14.432;2023-07-24T04:13:57;12.18;;;5.90;;
78716;SDS011;68045;50.042;14.432;2023-07-24T04:17:58;8.52;;;5.00;;
78716;SDS011;68045;50.042;14.432;2023-07-24T04:21:59;8.38;;;4.82;;
78716;SDS011;68045;50.042;14.432;2023-07-24T04:26:00;10.35;;;5.75;;
78716;SDS011;68045;50.042;14.432;2023-07-24T04:30:01;10.90;;;5.82;;
78716;SDS011;68045;50.042;14.432;2023-07-24T04:34:02;8.07;;;5.13;;
78716;SDS011;68045;50.042;14.432;2023-07-24T04:38:03;8.57;;;5.00;;
78716;SDS011;68045;50.042;14.432;2023-07-24T04:42:04;11.15;;;5.45;;
78716;SDS011;68045;50.042;14.432;2023-07-24T04:46:05;9.75;;;5.55;;
78716;SDS011;68045;50.042;14.432;2023-07-24T04:50:06;10.00;;;5.82;;
78716;SDS011;68045;50.042;14.432;2023-07-24T04:54:08;8.93;;;5.13;;
78716;SDS011;68045;50.042;14.432;2023-07-24T04:58:09;10.35;;;5.10;;
78716;SDS011;68045;50.042;14.432;2023-07-24T05:02:10;9.73;;;5.22;;
78716;SDS011;68045;50.042;14.432;2023-07-24T05:06:11;10.25;;;5.85;;
78716;SDS011;68045;50.042;14.432;2023-07-24T05:10:12;10.23;;;5.93;;
78716;SDS011;68045;50.042;14.432;2023-07-24T05:14:13;13.30;;;6.30;;
78716;SDS011;68045;50.042;14.432;2023-07-24T05:18:15;9.80;;;5.47;;
78716;SDS011;68045;50.042;14.432;2023-07-24T05:22:15;11.88;;;5.72;;
78716;SDS011;68045;50.042;14.432;2023-07-24T05:26:16;11.15;;;5.60;;
78716;SDS011;68045;50.042;14.432;2023-07-24T05:30:17;11.57;;;5.85;;
78716;SDS011;68045;50.042;14.432;2023-07-24T05:34:18;10.48;;;5.80;;
78716;SDS011;68045;50.042;14.432;2023-07-24T05:38:19;12.75;;;6.13;;
78716;SDS011;68045;50.042;14.432;2023-07-24T05:42:20;10.38;;;5.20;;
78716;SDS011;68045;50.042;14.432;2023-07-24T05:46:21;8.05;;;5.05;;
78716;SDS011;68045;50.042;14.432;2023-07-24T05:50:22;10.23;;;5.15;;
78716;SDS011;68045;50.042;14.432;2023-07-24T05:54:23;12.82;;;6.20;;
78716;SDS011;68045;50.042;14.432;2023-07-24T05:58:24;14.13;;;6.28;;
78716;SDS011;68045;50.042;14.432;2023-07-24T06:02:25;10.82;;;5.68;;
78716;SDS011;68045;50.042;14.432;2023-07-24T06:06:26;11.15;;;5.93;;
78716;SDS011;68045;50.042;14.432;2023-07-24T06:10:28;12.23;;;6.15;;
78716;SDS011;68045;50.042;14.432;2023-07-24T06:14:29;10.98;;;6.80;;
78716;SDS011;68045;50.042;14.432;2023-07-24T06:18:30;10.57;;;6.38;;
78716;SDS011;68045;50.042;14.432;2023-07-24T06:22:31;11.15;;;6.28;;
78716;SDS011;68045;50.042;14.432;2023-07-24T06:26:32;11.63;;;6.13;;
78716;SDS011;68045;50.042;14.432;2023-07-24T06:30:33;12.38;;;6.43;;
78716;SDS011;68045;50.042;14.432;2023-07-24T06:34:34;11.35;;;5.85;;
78716;SDS011;68045;50.042;14.432;2023-07-24T06:38:35;11.35;;;6.03;;
78716;SDS011;68045;50.042;14.432;2023-07-24T06:42:36;14.10;;;6.38;;
78716;SDS011;68045;50.042;14.432;2023-07-24T06:46:37;12.45;;;6.43;;
78716;SDS011;68045;50.042;14.432;2023-07-24T06:50:38;16.65;;;7.38;;
78716;SDS011;68045;50.042;14.432;2023-07-24T06:54:39;12.18;;;6.88;;
78716;SDS011;68045;50.042;14.432;2023-07-24T06:58:40;10.18;;;5.60;;
78716;SDS011;68045;50.042;14.432;2023-07-24T07:02:40;12.15;;;6.15;;
78716;SDS011;68045;50.042;14.432;2023-07-24T07:06:42;10.45;;;5.90;;
78716;SDS011;68045;50.042;14.432;2023-07-24T07:10:43;12.15;;;5.95;;
78716;SDS011;68045;50.042;14.432;2023-07-24T07:14:44;12.60;;;6.15;;
78716;SDS011;68045;50.042;14.432;2023-07-24T07:18:44;9.75;;;5.88;;
78716;SDS011;68045;50.042;14.432;2023-07-24T07:22:45;10.90;;;6.10;;
78716;SDS011;68045;50.042;14.432;2023-07-24T07:26:47;13.38;;;6.90;;
78716;SDS011;68045;50.042;14.432;2023-07-24T07:30:48;11.50;;;6.00;;
78716;SDS011;68045;50.042;14.432;2023-07-24T07:34:48;10.02;;;5.65;;
78716;SDS011;68045;50.042;14.432;2023-07-24T07:38:49;13.38;;;5.95;;
78716;SDS011;68045;50.042;14.432;2023-07-24T07:42:51;10.55;;;5.57;;
78716;SDS011;68045;50.042;14.432;2023-07-24T07:46:51;11.02;;;6.32;;
78716;SDS011;68045;50.042;14.432;2023-07-24T07:50:52;11.80;;;5.85;;
78716;SDS011;68045;50.042;14.432;2023-07-24T07:54:53;11.85;;;6.20;;
78716;SDS011;68045;50.042;14.432;2023-07-24T07:58:54;10.27;;;5.90;;
78716;SDS011;68045;50.042;14.432;2023-07-24T08:02:55;11.45;;;6.05;;
78716;SDS011;68045;50.042;14.432;2023-07-24T08:06:56;9.68;;;5.53;;
78716;SDS011;68045;50.042;14.432;2023-07-24T08:10:57;11.10;;;6.35;;
78716;SDS011;68045;50.042;14.432;2023-07-24T08:14:58;10.55;;;5.47;;
78716;SDS011;68045;50.042;14.432;2023-07-24T08:18:59;9.80;;;6.10;;
78716;SDS011;68045;50.042;14.432;2023-07-24T08:23:01;11.38;;;6.40;;
78716;SDS011;68045;50.042;14.432;2023-07-24T08:27:02;11.55;;;7.10;;
78716;SDS011;68045;50.042;14.432;2023-07-24T08:31:03;10.52;;;6.50;;
78716;SDS011;68045;50.042;14.432;2023-07-24T08:35:04;12.68;;;7.05;;
78716;SDS011;68045;50.042;14.432;2023-07-24T08:39:06;13.38;;;6.28;;
78716;SDS011;68045;50.042;14.432;2023-07-24T08:43:06;10.80;;;7.45;;
78716;SDS011;68045;50.042;14.432;2023-07-24T08:47:09;13.55;;;6.95;;
78716;SDS011;68045;50.042;14.432;2023-07-24T08:51:13;11.05;;;6.70;;
78716;SDS011;68045;50.042;14.432;2023-07-24T08:55:19;11.95;;;6.70;;
78716;SDS011;68045;50.042;14.432;2023-07-24T08:59:21;9.18;;;6.30;;
78716;SDS011;68045;50.042;14.432;2023-07-24T09:03:22;11.73;;;6.20;;
78716;SDS011;68045;50.042;14.432;2023-07-24T09:07:23;14.80;;;6.50;;
78716;SDS011;68045;50.042;14.432;2023-07-24T09:11:24;9.90;;;6.40;;
78716;SDS011;68045;50.042;14.432;2023-07-24T09:15:24;10.20;;;6.70;;
78716;SDS011;68045;50.042;14.432;2023-07-24T09:19:25;10.75;;;6.30;;
78716;SDS011;68045;50.042;14.432;2023-07-24T09:23:27;11.77;;;6.63;;
78716;SDS011;68045;50.042;14.432;2023-07-24T09:27:28;9.63;;;6.60;;
78716;SDS011;68045;50.042;14.432;2023-07-24T09:31:35;11.55;;;7.28;;
78716;SDS011;68045;50.042;14.432;2023-07-24T09:35:36;10.57;;;7.25;;
78716;SDS011;68045;50.042;14.432;2023-07-24T09:39:37;12.07;;;6.78;;
78716;SDS011;68045;50.042;14.432;2023-07-24T09:43:41;10.15;;;6.03;;
78716;SDS011;68045;50.042;14.432;2023-07-24T09:47:42;8.98;;;6.43;;
78716;SDS011;68045;50.042;14.432;2023-07-24T09:51:43;11.25;;;6.45;;
78716;SDS011;68045;50.042;14.432;2023-07-24T09:56:00;12.32;;;7.13;;
78716;SDS011;68045;50.042;14.432;2023-07-24T10:00:03;11.65;;;6.55;;
78716;SDS011;68045;50.042;14.432;2023-07-24T10:04:05;11.18;;;6.53;;
78716;SDS011;68045;50.042;14.432;2023-07-24T10:08:08;12.80;;;6.35;;
78716;SDS011;68045;50.042;14.432;2023-07-24T10:12:10;10.60;;;6.68;;
78716;SDS011;68045;50.042;14.432;2023-07-24T10:16:11;14.45;;;7.05;;
78716;SDS011;68045;50.042;14.432;2023-07-24T10:20:15;10.90;;;6.05;;
78716;SDS011;68045;50.042;14.432;2023-07-24T10:24:17;10.18;;;6.25;;
78716;SDS011;68045;50.042;14.432;2023-07-24T10:28:18;9.93;;;6.05;;
78716;SDS011;68045;50.042;14.432;2023-07-24T10:32:19;13.02;;;6.22;;
78716;SDS011;68045;50.042;14.432;2023-07-24T10:36:20;10.98;;;6.65;;
78716;SDS011;68045;50.042;14.432;2023-07-24T10:40:23;10.13;;;5.82;;
78716;SDS011;68045;50.042;14.432;2023-07-24T10:44:31;11.63;;;6.35;;
78716;SDS011;68045;50.042;14.432;2023-07-24T10:48:32;15.23;;;7.22;;
78716;SDS011;68045;50.042;14.432;2023-07-24T10:52:33;11.40;;;6.50;;
78716;SDS011;68045;50.042;14.432;2023-07-24T10:56:36;12.13;;;6.15;;
78716;SDS011;68045;50.042;14.432;2023-07-24T11:00:38;11.93;;;5.95;;
78716;SDS011;68045;50.042;14.432;2023-07-24T11:04:40;10.15;;;5.85;;
78716;SDS011;68045;50.042;14.432;2023-07-24T11:08:41;10.52;;;6.03;;
78716;SDS011;68045;50.042;14.432;2023-07-24T11:12:43;9.85;;;6.20;;
78716;SDS011;68045;50.042;14.432;2023-07-24T11:16:50;9.73;;;6.40;;
78716;SDS011;68045;50.042;14.432;2023-07-24T11:20:52;9.85;;;6.20;;
78716;SDS011;68045;50.042;14.432;2023-07-24T11:24:56;10.95;;;6.22;;
78716;SDS011;68045;50.042;14.432;2023-07-24T11:28:57;12.68;;;5.47;;
78716;SDS011;68045;50.042;14.432;2023-07-24T11:32:59;10.27;;;5.90;;
78716;SDS011;68045;50.042;14.432;2023-07-24T11:37:02;12.27;;;6.40;;
78716;SDS011;68045;50.042;14.432;2023-07-24T11:41:03;9.15;;;5.45;;
78716;SDS011;68045;50.042;14.432;2023-07-24T11:45:04;12.02;;;6.20;;
78716;SDS011;68045;50.042;14.432;2023-07-24T11:49:06;12.27;;;6.30;;
78716;SDS011;68045;50.042;14.432;2023-07-24T11:53:06;14.32;;;7.10;;
78716;SDS011;68045;50.042;14.432;2023-07-24T11:57:14;12.95;;;6.57;;
78716;SDS011;68045;50.042;14.432;2023-07-24T12:01:18;10.98;;;6.28;;
78716;SDS011;68045;50.042;14.432;2023-07-24T12:05:19;18.05;;;7.35;;
78716;SDS011;68045;50.042;14.432;2023-07-24T12:09:20;10.68;;;6.32;;
78716;SDS011;68045;50.042;14.432;2023-07-24T12:13:21;11.52;;;6.57;;
78716;SDS011;68045;50.042;14.432;2023-07-24T12:17:24;10.73;;;7.07;;
78716;SDS011;68045;50.042;14.432;2023-07-24T12:21:25;12.38;;;7.07;;
78716;SDS011;68045;50.042;14.432;2023-07-24T12:25:25;13.88;;;7.38;;
78716;SDS011;68045;50.042;14.432;2023-07-24T12:29:26;12.13;;;6.72;;
78716;SDS011;68045;50.042;14.432;2023-07-24T12:33:27;14.07;;;7.15;;
78716;SDS011;68045;50.042;14.432;2023-07-24T12:37:28;12.05;;;7.28;;
78716;SDS011;68045;50.042;14.432;2023-07-24T12:41:29;12.38;;;6.72;;
78716;SDS011;68045;50.042;14.432;2023-07-24T12:45:30;13.55;;;7.63;;
78716;SDS011;68045;50.042;14.432;2023-07-24T12:49:31;10.75;;;7.10;;
78716;SDS011;68045;50.042;14.432;2023-07-24T12:53:32;12.02;;;6.97;;
78716;SDS011;68045;50.042;14.432;2023-07-24T12:57:33;12.32;;;7.63;;
78716;SDS011;68045;50.042;14.432;2023-07-24T13:01:34;13.00;;;7.28;;
78716;SDS011;68045;50.042;14.432;2023-07-24T13:05:36;13.35;;;7.78;;
78716;SDS011;68045;50.042;14.432;2023-07-24T13:09:38;12.77;;;7.57;;
78716;SDS011;68045;50.042;14.432;2023-07-24T13:13:38;14.50;;;7.95;;
78716;SDS011;68045;50.042;14.432;2023-07-24T13:17:39;12.25;;;7.43;;
78716;SDS011;68045;50.042;14.432;2023-07-24T13:21:40;16.73;;;8.15;;
78716;SDS011;68045;50.042;14.432;2023-07-24T13:25:43;11.60;;;6.35;;
78716;SDS011;68045;50.042;14.432;2023-07-24T13:29:44;11.20;;;6.30;;
78716;SDS011;68045;50.042;14.432;2023-07-24T13:33:45;11.73;;;6.93;;
78716;SDS011;68045;50.042;14.432;2023-07-24T13:37:46;10.43;;;5.95;;
78716;SDS011;68045;50.042;14.432;2023-07-24T13:41:47;17.38;;;7.40;;
78716;SDS011;68045;50.042;14.432;2023-07-24T13:45:48;12.77;;;7.13;;
78716;SDS011;68045;50.042;14.432;2023-07-24T13:49:49;10.18;;;6.45;;
78716;SDS011;68045;50.042;14.432;2023-07-24T13:53:50;13.15;;;6.78;;
78716;SDS011;68045;50.042;14.432;2023-07-24T14:01:53;12.18;;;6.20;;
78716;SDS011;68045;50.042;14.432;2023-07-24T14:05:54;9.48;;;5.80;;
78716;SDS011;68045;50.042;14.432;2023-07-24T14:09:55;12.55;;;6.07;;
78716;SDS011;68045;50.042;14.432;2023-07-24T14:13:56;11.48;;;6.05;;
78716;SDS011;68045;50.042;14.432;2023-07-24T14:17:56;11.05;;;6.35;;
78716;SDS011;68045;50.042;14.432;2023-07-24T14:21:57;13.52;;;6.93;;
78716;SDS011;68045;50.042;14.432;2023-07-24T14:25:58;9.32;;;6.05;;
78716;SDS011;68045;50.042;14.432;2023-07-24T14:29:59;12.38;;;6.55;;
78716;SDS011;68045;50.042;14.432;2023-07-24T14:34:00;12.73;;;6.28;;
78716;SDS011;68045;50.042;14.432;2023-07-24T14:38:01;10.65;;;6.47;;
78716;SDS011;68045;50.042;14.432;2023-07-24T14:42:02;10.77;;;6.07;;
78716;SDS011;68045;50.042;14.432;2023-07-24T14:46:03;12.20;;;5.35;;
78716;SDS011;68045;50.042;14.432;2023-07-24T14:50:04;9.73;;;5.60;;
78716;SDS011;68045;50.042;14.432;2023-07-24T14:58:07;8.88;;;5.03;;
78716;SDS011;68045;50.042;14.432;2023-07-24T15:02:08;10.20;;;5.60;;
78716;SDS011;68045;50.042;14.432;2023-07-24T15:06:09;11.77;;;5.45;;
78716;SDS011;68045;50.042;14.432;2023-07-24T15:10:10;9.55;;;4.97;;
78716;SDS011;68045;50.042;14.432;2023-07-24T15:14:12;9.00;;;4.47;;
78716;SDS011;68045;50.042;14.432;2023-07-24T15:18:13;7.45;;;4.20;;
78716;SDS011;68045;50.042;14.432;2023-07-24T15:22:14;6.15;;;3.50;;
78716;SDS011;68045;50.042;14.432;2023-07-24T15:26:14;8.07;;;4.30;;
78716;SDS011;68045;50.042;14.432;2023-07-24T15:30:15;6.93;;;3.42;;
78716;SDS011;68045;50.042;14.432;2023-07-24T15:34:16;9.88;;;4.50;;
78716;SDS011;68045;50.042;14.432;2023-07-24T15:38:17;7.07;;;3.85;;
78716;SDS011;68045;50.042;14.432;2023-07-24T15:42:18;8.18;;;4.55;;
78716;SDS011;68045;50.042;14.432;2023-07-24T15:46:21;7.28;;;4.07;;
78716;SDS011;68045;50.042;14.432;2023-07-24T15:50:22;7.05;;;3.78;;
78716;SDS011;68045;50.042;14.432;2023-07-24T15:54:23;7.95;;;4.90;;
78716;SDS011;68045;50.042;14.432;2023-07-24T15:58:24;10.13;;;5.00;;
78716;SDS011;68045;50.042;14.432;2023-07-24T16:02:25;7.35;;;4.28;;
78716;SDS011;68045;50.042;14.432;2023-07-24T16:06:26;8.02;;;4.70;;
78716;SDS011;68045;50.042;14.432;2023-07-24T16:10:27;8.13;;;4.60;;
78716;SDS011;68045;50.042;14.432;2023-07-24T16:14:28;7.47;;;4.70;;
78716;SDS011;68045;50.042;14.432;2023-07-24T16:18:28;8.18;;;4.03;;
78716;SDS011;68045;50.042;14.432;2023-07-24T16:22:29;7.55;;;4.15;;
78716;SDS011;68045;50.042;14.432;2023-07-24T16:26:30;5.75;;;3.55;;
78716;SDS011;68045;50.042;14.432;2023-07-24T16:30:31;7.45;;;4.07;;
78716;SDS011;68045;50.042;14.432;2023-07-24T16:34:32;6.47;;;3.80;;
78716;SDS011;68045;50.042;14.432;2023-07-24T16:38:36;5.82;;;3.90;;
78716;SDS011;68045;50.042;14.432;2023-07-24T16:42:37;7.43;;;4.18;;
78716;SDS011;68045;50.042;14.432;2023-07-24T16:46:38;6.78;;;3.95;;
78716;SDS011;68045;50.042;14.432;2023-07-24T16:50:38;6.60;;;3.63;;
78716;SDS011;68045;50.042;14.432;2023-07-24T16:54:39;7.18;;;4.22;;
78716;SDS011;68045;50.042;14.432;2023-07-24T16:58:40;6.43;;;3.92;;
78716;SDS011;68045;50.042;14.432;2023-07-24T17:02:41;5.78;;;3.95;;
78716;SDS011;68045;50.042;14.432;2023-07-24T17:06:42;6.40;;;3.63;;
78716;SDS011;68045;50.042;14.432;2023-07-24T17:10:47;5.97;;;3.58;;
78716;SDS011;68045;50.042;14.432;2023-07-24T17:14:50;6.35;;;3.28;;
78716;SDS011;68045;50.042;14.432;2023-07-24T17:18:51;6.28;;;3.22;;
78716;SDS011;68045;50.042;14.432;2023-07-24T17:22:56;6.05;;;3.90;;
78716;SDS011;68045;50.042;14.432;2023-07-24T17:26:57;6.75;;;3.65;;
78716;SDS011;68045;50.042;14.432;2023-07-24T17:30:58;4.80;;;3.15;;
78716;SDS011;68045;50.042;14.432;2023-07-24T17:34:59;5.70;;;3.20;;
78716;SDS011;68045;50.042;14.432;2023-07-24T17:39:00;5.38;;;3.58;;
78716;SDS011;68045;50.042;14.432;2023-07-24T17:43:01;4.40;;;2.90;;
78716;SDS011;68045;50.042;14.432;2023-07-24T17:47:03;5.13;;;3.20;;
78716;SDS011;68045;50.042;14.432;2023-07-24T17:51:04;5.80;;;3.40;;
78716;SDS011;68045;50.042;14.432;2023-07-24T17:55:05;5.70;;;3.28;;
78716;SDS011;68045;50.042;14.432;2023-07-24T17:59:05;8.43;;;3.33;;
78716;SDS011;68045;50.042;14.432;2023-07-24T18:03:06;6.13;;;3.30;;
78716;SDS011;68045;50.042;14.432;2023-07-24T18:07:07;5.65;;;2.80;;
78716;SDS011;68045;50.042;14.432;2023-07-24T18:11:09;6.35;;;3.42;;
78716;SDS011;68045;50.042;14.432;2023-07-24T18:15:10;4.88;;;2.90;;
78716;SDS011;68045;50.042;14.432;2023-07-24T18:19:11;5.03;;;3.10;;
78716;SDS011;68045;50.042;14.432;2023-07-24T18:23:12;6.65;;;3.20;;
78716;SDS011;68045;50.042;14.432;2023-07-24T18:27:16;5.55;;;3.42;;
78716;SDS011;68045;50.042;14.432;2023-07-24T18:31:17;7.90;;;3.85;;
78716;SDS011;68045;50.042;14.432;2023-07-24T18:35:19;5.93;;;3.35;;
78716;SDS011;68045;50.042;14.432;2023-07-24T18:39:20;6.45;;;3.83;;
78716;SDS011;68045;50.042;14.432;2023-07-24T18:43:21;7.00;;;3.20;;
78716;SDS011;68045;50.042;14.432;2023-07-24T18:47:22;6.50;;;3.85;;
78716;SDS011;68045;50.042;14.432;2023-07-24T18:51:23;6.38;;;3.83;;
78716;SDS011;68045;50.042;14.432;2023-07-24T18:55:24;6.50;;;3.85;;
78716;SDS011;68045;50.042;14.432;2023-07-24T18:59:25;7.55;;;4.13;;
78716;SDS011;68045;50.042;14.432;2023-07-24T19:03:26;6.10;;;3.72;;
78716;SDS011;68045;50.042;14.432;2023-07-24T19:07:27;6.70;;;4.00;;
78716;SDS011;68045;50.042;14.432;2023-07-24T19:11:28;9.18;;;3.75;;
78716;SDS011;68045;50.042;14.432;2023-07-24T19:15:29;6.68;;;4.20;;
78716;SDS011;68045;50.042;14.432;2023-07-24T19:19:30;8.95;;;4.05;;
78716;SDS011;68045;50.042;14.432;2023-07-24T19:23:30;5.95;;;3.55;;
78716;SDS011;68045;50.042;14.432;2023-07-24T19:27:31;6.55;;;4.40;;
78716;SDS011;68045;50.042;14.432;2023-07-24T19:31:35;8.45;;;4.25;;
78716;SDS011;68045;50.042;14.432;2023-07-24T19:35:36;6.15;;;3.90;;
78716;SDS011;68045;50.042;14.432;2023-07-24T19:39:38;6.65;;;3.90;;
78716;SDS011;68045;50.042;14.432;2023-07-24T19:43:40;7.43;;;3.80;;
78716;SDS011;68045;50.042;14.432;2023-07-24T19:47:41;8.93;;;4.05;;
78716;SDS011;68045;50.042;14.432;2023-07-24T19:51:42;6.43;;;4.00;;
78716;SDS011;68045;50.042;14.432;2023-07-24T19:55:45;8.13;;;4.22;;
78716;SDS011;68045;50.042;14.432;2023-07-24T19:59:47;7.50;;;4.18;;
78716;SDS011;68045;50.042;14.432;2023-07-24T20:03:48;8.60;;;4.15;;
78716;SDS011;68045;50.042;14.432;2023-07-24T20:07:49;6.82;;;3.55;;
78716;SDS011;68045;50.042;14.432;2023-07-24T20:11:50;5.50;;;3.72;;
78716;SDS011;68045;50.042;14.432;2023-07-24T20:15:51;5.32;;;3.08;;
78716;SDS011;68045;50.042;14.432;2023-07-24T20:19:52;8.20;;;3.63;;
78716;SDS011;68045;50.042;14.432;2023-07-24T20:23:53;6.47;;;3.58;;
78716;SDS011;68045;50.042;14.432;2023-07-24T20:27:54;7.25;;;3.55;;
78716;SDS011;68045;50.042;14.432;2023-07-24T20:31:55;6.63;;;3.47;;
78716;SDS011;68045;50.042;14.432;2023-07-24T20:35:56;5.53;;;3.17;;
78716;SDS011;68045;50.042;14.432;2023-07-24T20:39:57;7.18;;;3.30;;
78716;SDS011;68045;50.042;14.432;2023-07-24T20:43:58;5.78;;;3.70;;
78716;SDS011;68045;50.042;14.432;2023-07-24T20:47:59;6.18;;;3.85;;
78716;SDS011;68045;50.042;14.432;2023-07-24T20:52:00;7.25;;;4.22;;
78716;SDS011;68045;50.042;14.432;2023-07-24T20:56:01;6.18;;;3.22;;
78716;SDS011;68045;50.042;14.432;2023-07-24T21:00:02;6.32;;;3.67;;
78716;SDS011;68045;50.042;14.432;2023-07-24T21:04:04;5.97;;;3.30;;
78716;SDS011;68045;50.042;14.432;2023-07-24T21:08:05;6.20;;;3.72;;
78716;SDS011;68045;50.042;14.432;2023-07-24T21:12:07;6.43;;;3.80;;
78716;SDS011;68045;50.042;14.432;2023-07-24T21:16:08;6.22;;;3.30;;
78716;SDS011;68045;50.042;14.432;2023-07-24T21:20:09;6.40;;;3.42;;
78716;SDS011;68045;50.042;14.432;2023-07-24T21:24:10;4.60;;;2.92;;
78716;SDS011;68045;50.042;14.432;2023-07-24T21:28:11;6.45;;;4.05;;
78716;SDS011;68045;50.042;14.432;2023-07-24T21:32:12;8.65;;;3.33;;
78716;SDS011;68045;50.042;14.432;2023-07-24T21:36:13;7.22;;;4.30;;
78716;SDS011;68045;50.042;14.432;2023-07-24T21:40:14;7.15;;;3.40;;
78716;SDS011;68045;50.042;14.432;2023-07-24T21:44:15;5.93;;;3.78;;
78716;SDS011;68045;50.042;14.432;2023-07-24T21:48:16;5.85;;;3.65;;
78716;SDS011;68045;50.042;14.432;2023-07-24T21:52:16;7.10;;;3.97;;
78716;SDS011;68045;50.042;14.432;2023-07-24T21:56:18;6.95;;;3.70;;
78716;SDS011;68045;50.042;14.432;2023-07-24T22:00:18;5.65;;;3.40;;
78716;SDS011;68045;50.042;14.432;2023-07-24T22:04:19;5.20;;;2.63;;
78716;SDS011;68045;50.042;14.432;2023-07-24T22:08:21;4.57;;;3.17;;
78716;SDS011;68045;50.042;14.432;2023-07-24T22:12:22;5.47;;;3.00;;
78716;SDS011;68045;50.042;14.432;2023-07-24T22:16:22;6.00;;;2.83;;
78716;SDS011;68045;50.042;14.432;2023-07-24T22:20:23;5.80;;;3.35;;
78716;SDS011;68045;50.042;14.432;2023-07-24T22:24:25;8.52;;;3.78;;
78716;SDS011;68045;50.042;14.432;2023-07-24T22:28:26;6.53;;;3.65;;
78716;SDS011;68045;50.042;14.432;2023-07-24T22:32:27;7.40;;;3.20;;
78716;SDS011;68045;50.042;14.432;2023-07-24T22:36:28;8.25;;;3.35;;
78716;SDS011;68045;50.042;14.432;2023-07-24T22:40:30;5.78;;;3.30;;
78716;SDS011;68045;50.042;14.432;2023-07-24T22:44:31;4.47;;;2.72;;
78716;SDS011;68045;50.042;14.432;2023-07-24T22:48:34;5.40;;;3.17;;
78716;SDS011;68045;50.042;14.432;2023-07-24T22:52:35;4.95;;;2.75;;
78716;SDS011;68045;50.042;14.432;2023-07-24T22:56:36;6.50;;;3.05;;
78716;SDS011;68045;50.042;14.432;2023-07-24T23:00:39;5.88;;;3.17;;
78716;SDS011;68045;50.042;14.432;2023-07-24T23:04:40;8.27;;;3.97;;
78716;SDS011;68045;50.042;14.432;2023-07-24T23:08:42;5.70;;;3.40;;
78716;SDS011;68045;50.042;14.432;2023-07-24T23:12:43;5.93;;;3.10;;
78716;SDS011;68045;50.042;14.432;2023-07-24T23:16:44;5.40;;;3.20;;
78716;SDS011;68045;50.042;14.432;2023-07-24T23:20:45;6.22;;;3.40;;
78716;SDS011;68045;50.042;14.432;2023-07-24T23:24:45;6.18;;;3.45;;
78716;SDS011;68045;50.042;14.432;2023-07-24T23:28:46;5.72;;;3.03;;
78716;SDS011;68045;50.042;14.432;2023-07-24T23:32:47;6.13;;;3.13;;
78716;SDS011;68045;50.042;14.432;2023-07-24T23:36:48;4.97;;;2.95;;
78716;SDS011;68045;50.042;14.432;2023-07-24T23:40:56;5.75;;;3.13;;
78716;SDS011;68045;50.042;14.432;2023-07-24T23:45:02;5.43;;;3.10;;
78716;SDS011;68045;50.042;14.432;2023-07-24T23:49:03;6.30;;;3.22;;
78716;SDS011;68045;50.042;14.432;2023-07-24T23:53:03;6.18;;;3.40;;
78716;SDS011;68045;50.042;14.432;2023-07-24T23:57:04;6.00;;;3.40;;
